Hauptseite
METAR-TAF:

METAR-TAF

Flughäfen :

Heeresflugplatz Bückeburg

Bückeburg, Deutschland

Breite: 52-17N, Länge: 009-05E, Höhe: 70 m

Beobachtung

Neuester Wetterbericht von vor 20 Minuten, um 13:20 UTC
Wind 8 kt aus Nord/Nordwest
Temperatur 30°C
Luftfeuchtigkeit 27%
Luftdruck 1013 hPa
Sichtweite 10 km oder mehr
Aufgelockert bewölkt in der Höhe von 8000 ft
Aufgelockert bewölkt in der Höhe von 35000 ft

METAR: ETHB 171320Z 33008KT 9999 SCT080 SCT350 30/09 Q1013 BLU+BLU+

Zeit: 15:40 (13:40 UTC)

Prognose

Neuester Wetterbericht von vor 3 Stunden und 37 Minuten, um 10:03 UTC
Gültige Prognose vom 17 um 11 UTC bis 17 um 20 UTC
Wind 5 kt aus West
Sichtweite 10 km oder mehr
Leicht bewölkt in der Höhe von 6000 ft

TAF: ETHB 171003Z 1711/1720 26005KT 9999 NSW FEW060

Wetterbeobachtungen und Prognosen von mehr als 4000 Flughäfen (METAR und TAF Bericht).

Die verfügbaren Stationen werden durch gelbe und rote Markierungen auf der Karte dargestellt.

Führen Sie die Maus auf sie, um den Namen der Station zu sehen.

Darauf klicken, um die Beobachtung von Wetterbeobachtungen und Prognosen zu sehen.

Um die Karte zu ändern : klicken Sie auf den grünen Tasten mit einem schwarzen Kreuz Zum Vergrößern, auf den grünen Button mit einem Gedankenstrich zu verkleinern, oder auf die grünen Pfeile für benachbarte Karten.


METAR-TAF: